createdAt,value
2018-05-02T00:00:40.650Z,12.25
2018-05-02T00:03:08.312Z,12.26
2018-05-02T00:05:36.287Z,12.25
2018-05-02T00:08:04.049Z,12.24
2018-05-02T00:10:31.912Z,12.23
2018-05-02T00:12:59.606Z,12.24
2018-05-02T00:15:27.193Z,12.23
2018-05-02T00:17:54.829Z,12.20
2018-05-02T00:20:22.417Z,12.25
2018-05-02T00:22:50.057Z,12.18
2018-05-02T00:25:17.652Z,12.20
2018-05-02T00:27:45.667Z,12.22
2018-05-02T00:30:13.635Z,12.21
2018-05-02T00:32:41.227Z,12.17
2018-05-02T00:35:08.825Z,12.19
2018-05-02T00:37:36.432Z,12.22
2018-05-02T00:40:04.024Z,12.14
2018-05-02T00:42:31.631Z,12.08
2018-05-02T00:44:59.268Z,12.06
2018-05-02T00:47:27.413Z,12.03
2018-05-02T00:49:55.064Z,12.01
2018-05-02T00:52:22.658Z,12.00
2018-05-02T00:54:50.940Z,11.97
2018-05-02T00:57:18.525Z,11.97
2018-05-02T00:59:46.120Z,11.93
2018-05-02T01:02:13.744Z,11.87
2018-05-02T01:04:41.415Z,11.87
2018-05-02T01:07:09.109Z,11.87
2018-05-02T01:09:37.080Z,11.80
2018-05-02T01:12:04.654Z,11.79
2018-05-02T01:14:32.848Z,11.76
2018-05-02T01:17:00.440Z,11.74
2018-05-02T01:19:28.037Z,11.73
2018-05-02T01:21:55.682Z,11.72
2018-05-02T01:24:23.251Z,11.71
2018-05-02T01:26:50.836Z,11.65
2018-05-02T01:29:18.480Z,11.64
2018-05-02T01:31:46.026Z,11.61
2018-05-02T01:34:13.581Z,11.62
2018-05-02T01:36:41.152Z,11.58
2018-05-02T01:39:08.729Z,11.53
2018-05-02T01:41:36.583Z,11.50
2018-05-02T01:44:04.286Z,11.51
2018-05-02T01:46:31.813Z,11.51
2018-05-02T01:49:11.064Z,11.49
2018-05-02T01:51:38.722Z,11.46
2018-05-02T01:54:06.286Z,11.43
2018-05-02T01:56:33.843Z,11.39
2018-05-02T01:59:01.477Z,11.37
2018-05-02T02:01:29.098Z,11.34
2018-05-02T02:03:56.741Z,11.32
2018-05-02T02:06:24.302Z,11.31
2018-05-02T02:08:51.884Z,11.30
2018-05-02T02:11:19.459Z,11.28
2018-05-02T02:13:47.251Z,11.27
2018-05-02T02:16:14.792Z,11.26
2018-05-02T02:18:42.383Z,11.29
2018-05-02T02:21:09.975Z,11.28
2018-05-02T02:23:37.913Z,11.26
2018-05-02T02:26:05.660Z,11.24
2018-05-02T02:28:33.293Z,11.19
2018-05-02T02:31:00.887Z,11.15
2018-05-02T02:33:28.498Z,11.11
2018-05-02T02:35:56.152Z,11.09
2018-05-02T02:38:24.114Z,11.09
2018-05-02T02:40:51.789Z,11.06
2018-05-02T02:43:19.398Z,11.04
2018-05-02T02:45:47.389Z,11.00
2018-05-02T02:48:15.010Z,11.01
2018-05-02T02:50:42.578Z,10.93
2018-05-02T02:53:10.674Z,10.93
2018-05-02T02:55:38.335Z,10.87
2018-05-02T02:58:06.410Z,10.81
2018-05-02T03:00:34.176Z,10.82
2018-05-02T03:03:01.827Z,10.82
2018-05-02T03:05:29.572Z,10.80
2018-05-02T03:07:57.877Z,10.82
2018-05-02T03:10:25.764Z,10.80
2018-05-02T03:12:54.810Z,10.81
2018-05-02T03:15:22.420Z,10.80
2018-05-02T03:17:49.974Z,10.81
2018-05-02T03:20:17.564Z,10.84
2018-05-02T03:22:45.077Z,10.84
2018-05-02T03:25:13.480Z,10.79
2018-05-02T03:27:41.060Z,10.75
2018-05-02T03:30:08.595Z,10.73
2018-05-02T03:32:36.577Z,10.73
2018-05-02T03:35:04.103Z,10.72
2018-05-02T03:37:31.637Z,10.75
2018-05-02T03:39:59.205Z,10.76
2018-05-02T03:42:26.814Z,10.76
2018-05-02T03:44:54.379Z,10.76
2018-05-02T03:47:21.976Z,10.76
2018-05-02T03:49:49.589Z,10.70
2018-05-02T03:52:17.143Z,10.71
2018-05-02T03:54:44.898Z,10.70
2018-05-02T03:57:12.703Z,10.70
2018-05-02T03:59:52.344Z,10.67
2018-05-02T04:02:32.091Z,10.63
2018-05-02T04:05:11.397Z,10.66
2018-05-02T04:07:39.317Z,10.70
2018-05-02T04:10:06.866Z,10.75
2018-05-02T04:12:34.457Z,10.79
2018-05-02T04:15:02.608Z,10.84
2018-05-02T04:17:30.238Z,10.85
2018-05-02T04:19:57.780Z,10.83
2018-05-02T04:22:25.394Z,10.83
2018-05-02T04:24:53.201Z,10.87
2018-05-02T04:27:21.103Z,10.96
2018-05-02T04:29:48.715Z,11.01
2018-05-02T04:32:16.321Z,11.05
2018-05-02T04:34:43.901Z,11.07
2018-05-02T04:37:12.203Z,11.12
2018-05-02T04:39:40.030Z,11.15
2018-05-02T04:42:07.625Z,11.20
2018-05-02T04:44:35.185Z,11.22
2018-05-02T04:47:02.762Z,11.25
2018-05-02T04:49:30.429Z,11.28
2018-05-02T04:51:58.054Z,11.30
2018-05-02T04:54:25.825Z,11.30
2018-05-02T04:56:53.391Z,11.31
2018-05-02T04:59:20.916Z,11.34
2018-05-02T05:01:48.502Z,11.41
2018-05-02T05:04:16.049Z,11.46
2018-05-02T05:06:43.722Z,11.48
2018-05-02T05:09:11.274Z,11.51
2018-05-02T05:11:38.830Z,11.59
2018-05-02T05:14:06.377Z,11.64
2018-05-02T05:16:33.908Z,11.81
2018-05-02T05:19:01.486Z,11.80
2018-05-02T05:21:29.024Z,11.84
2018-05-02T05:23:56.556Z,11.89
2018-05-02T05:26:24.140Z,11.88
2018-05-02T05:28:52.060Z,11.90
2018-05-02T05:31:19.639Z,11.96
2018-05-02T05:33:47.500Z,12.01
2018-05-02T05:36:15.081Z,12.08
2018-05-02T05:38:42.653Z,12.16
2018-05-02T05:41:10.385Z,12.29
2018-05-02T05:43:38.140Z,12.50
2018-05-02T05:46:05.720Z,12.48
2018-05-02T05:48:33.347Z,12.61
2018-05-02T05:51:01.168Z,12.64
2018-05-02T05:53:28.715Z,12.78
2018-05-02T05:55:56.300Z,12.65
2018-05-02T05:58:23.892Z,12.66
2018-05-02T06:00:51.435Z,12.69
2018-05-02T06:03:19.918Z,12.76
2018-05-02T06:05:47.618Z,12.76
2018-05-02T06:08:16.134Z,12.76
2018-05-02T06:10:44.192Z,12.82
2018-05-02T06:13:11.805Z,12.97
2018-05-02T06:15:39.344Z,13.14
2018-05-02T06:18:07.349Z,13.19
2018-05-02T06:20:35.343Z,13.14
2018-05-02T06:23:02.874Z,12.93
2018-05-02T06:25:30.459Z,13.02
2018-05-02T06:27:57.997Z,13.25
2018-05-02T06:30:25.509Z,13.48
2018-05-02T06:32:53.046Z,13.60
2018-05-02T06:35:20.619Z,13.62
2018-05-02T06:37:48.229Z,13.69
2018-05-02T06:40:15.771Z,13.85
2018-05-02T06:42:43.345Z,14.07
2018-05-02T06:45:11.324Z,14.14
2018-05-02T06:47:38.941Z,14.11
2018-05-02T06:50:06.564Z,14.09
2018-05-02T06:52:34.118Z,14.23
2018-05-02T06:55:01.683Z,14.25
2018-05-02T06:57:29.223Z,14.15
2018-05-02T06:59:56.794Z,14.27
2018-05-02T07:02:24.387Z,14.33
2018-05-02T07:04:52.170Z,14.48
2018-05-02T07:07:19.754Z,14.46
2018-05-02T07:09:47.413Z,14.48
2018-05-02T07:12:15.030Z,14.53
2018-05-02T07:14:42.727Z,14.36
2018-05-02T07:17:10.436Z,14.37
2018-05-02T07:19:37.977Z,14.52
2018-05-02T07:22:05.710Z,14.70
2018-05-02T07:24:33.339Z,14.77
2018-05-02T07:27:00.924Z,14.80
2018-05-02T07:29:28.667Z,14.86
2018-05-02T07:31:56.279Z,15.12
2018-05-02T07:34:23.906Z,15.08
2018-05-02T07:36:51.499Z,15.03
2018-05-02T07:39:19.159Z,15.03
2018-05-02T07:41:46.753Z,15.01
2018-05-02T07:44:14.385Z,15.22
2018-05-02T07:46:41.956Z,15.21
2018-05-02T07:49:09.576Z,15.28
2018-05-02T07:51:37.133Z,15.36
2018-05-02T07:54:04.840Z,15.57
2018-05-02T07:56:32.549Z,15.71
2018-05-02T07:59:00.060Z,16.05
2018-05-02T08:01:27.707Z,16.12
2018-05-02T08:03:55.286Z,16.19
2018-05-02T08:06:23.012Z,16.24
2018-05-02T08:08:50.606Z,16.31
2018-05-02T08:11:18.213Z,16.39
2018-05-02T08:13:45.846Z,16.33
2018-05-02T08:16:13.567Z,16.30
2018-05-02T08:18:41.087Z,16.49
2018-05-02T08:21:08.698Z,16.76
2018-05-02T08:23:37.167Z,17.21
2018-05-02T08:26:04.847Z,17.38
2018-05-02T08:28:32.398Z,17.44
2018-05-02T08:30:59.970Z,17.50
2018-05-02T08:33:27.624Z,17.52
2018-05-02T08:35:55.244Z,17.46
2018-05-02T08:38:23.026Z,17.44
2018-05-02T08:40:50.590Z,17.31
2018-05-02T08:43:18.138Z,17.42
2018-05-02T08:45:45.724Z,17.67
2018-05-02T08:48:13.904Z,17.92
2018-05-02T08:50:41.717Z,17.94
2018-05-02T08:53:09.340Z,17.88
2018-05-02T08:55:36.961Z,17.57
2018-05-02T08:58:04.866Z,17.47
2018-05-02T09:00:32.615Z,17.05
2018-05-02T09:03:00.188Z,17.03
2018-05-02T09:05:27.803Z,16.92
2018-05-02T09:07:55.399Z,16.86
2018-05-02T09:10:22.979Z,16.67
2018-05-02T09:12:50.524Z,16.41
2018-05-02T09:15:18.136Z,16.34
2018-05-02T09:17:45.731Z,16.14
2018-05-02T09:20:13.333Z,16.05
2018-05-02T09:22:41.054Z,15.89
2018-05-02T09:25:08.639Z,15.70
2018-05-02T09:27:36.165Z,15.59
2018-05-02T09:30:03.778Z,15.53
2018-05-02T09:32:31.356Z,15.48
2018-05-02T09:34:58.888Z,15.46
2018-05-02T09:37:26.636Z,15.61
2018-05-02T09:39:54.188Z,15.61
2018-05-02T09:42:21.758Z,15.56
2018-05-02T09:44:49.356Z,15.51
2018-05-02T09:47:16.978Z,15.47
2018-05-02T09:49:44.552Z,15.56
2018-05-02T09:52:12.207Z,15.44
2018-05-02T09:54:39.779Z,15.44
2018-05-02T09:57:07.326Z,15.47
2018-05-02T09:59:34.960Z,15.58
2018-05-02T10:02:02.524Z,15.60
2018-05-02T10:04:30.127Z,15.58
2018-05-02T10:06:58.620Z,15.48
2018-05-02T10:09:26.196Z,15.51
2018-05-02T10:11:53.818Z,15.52
2018-05-02T10:14:21.482Z,15.49
2018-05-02T10:16:49.105Z,15.57
2018-05-02T10:19:16.763Z,15.65
2018-05-02T10:21:44.707Z,15.63
2018-05-02T10:24:12.325Z,15.70
2018-05-02T10:26:39.955Z,15.68
2018-05-02T10:29:07.549Z,15.67
2018-05-02T10:31:35.134Z,15.87
2018-05-02T10:34:02.708Z,15.88
2018-05-02T10:36:30.307Z,15.97
2018-05-02T10:38:57.849Z,16.14
2018-05-02T10:41:25.464Z,16.18
2018-05-02T10:43:53.047Z,16.35
2018-05-02T10:46:20.735Z,16.41
2018-05-02T10:48:48.294Z,16.39
2018-05-02T10:51:16.023Z,16.43
2018-05-02T10:53:43.551Z,16.59
2018-05-02T10:56:11.186Z,16.65
2018-05-02T10:58:38.746Z,16.58
2018-05-02T11:01:06.274Z,16.56
2018-05-02T11:03:33.843Z,16.56
2018-05-02T11:06:01.440Z,16.67
2018-05-02T11:08:29.209Z,16.70
2018-05-02T11:10:56.717Z,16.70
2018-05-02T11:13:24.297Z,16.71
2018-05-02T11:15:51.863Z,16.66
2018-05-02T11:18:19.503Z,16.69
2018-05-02T11:20:47.128Z,16.89
2018-05-02T11:23:14.692Z,17.01
2018-05-02T11:25:42.203Z,17.12
2018-05-02T11:28:09.897Z,17.36
2018-05-02T11:30:37.444Z,17.49
2018-05-02T11:33:05.796Z,17.54
2018-05-02T11:35:37.148Z,17.30
2018-05-02T11:38:04.847Z,17.16
2018-05-02T11:40:32.433Z,17.14
2018-05-02T11:43:00.312Z,16.96
2018-05-02T11:45:27.914Z,16.46
2018-05-02T11:47:56.114Z,16.29
2018-05-02T11:50:23.702Z,16.27
2018-05-02T11:52:51.329Z,16.23
2018-05-02T11:55:18.988Z,16.10
2018-05-02T11:57:47.160Z,16.09
2018-05-02T12:00:15.313Z,16.06
2018-05-02T12:02:42.928Z,16.14
2018-05-02T12:05:10.654Z,16.05
2018-05-02T12:07:38.182Z,15.75
2018-05-02T12:10:05.825Z,15.63
2018-05-02T12:12:33.470Z,15.62
2018-05-02T12:15:01.863Z,15.53
2018-05-02T12:17:29.406Z,15.43
2018-05-02T12:19:57.868Z,15.35
2018-05-02T12:22:25.398Z,15.35
2018-05-02T12:24:53.324Z,15.32
2018-05-02T12:27:20.972Z,15.35
2018-05-02T12:29:48.598Z,15.60
2018-05-02T12:32:16.220Z,15.57
2018-05-02T12:34:43.796Z,15.61
2018-05-02T12:37:12.020Z,15.63
2018-05-02T12:39:39.548Z,15.64
2018-05-02T12:42:07.135Z,15.62
2018-05-02T12:44:34.897Z,15.56
2018-05-02T12:47:02.461Z,15.73
2018-05-02T12:49:29.997Z,15.68
2018-05-02T12:51:57.685Z,15.62
2018-05-02T12:54:25.469Z,15.58
2018-05-02T12:56:53.758Z,15.54
2018-05-02T12:59:21.376Z,15.58
2018-05-02T13:01:48.964Z,15.58
2018-05-02T13:04:16.537Z,15.63
2018-05-02T13:06:44.177Z,15.56
2018-05-02T13:09:11.690Z,15.49
2018-05-02T13:11:39.300Z,15.53
2018-05-02T13:14:06.910Z,15.62
2018-05-02T13:16:34.517Z,15.66
2018-05-02T13:19:02.046Z,15.84
2018-05-02T13:21:29.608Z,15.98
2018-05-02T13:23:57.185Z,15.93
2018-05-02T13:26:24.730Z,15.97
2018-05-02T13:28:53.169Z,16.05
2018-05-02T13:31:20.950Z,16.16
2018-05-02T13:33:48.484Z,16.06
2018-05-02T13:36:16.076Z,16.12
2018-05-02T13:38:43.642Z,16.38
2018-05-02T13:41:11.196Z,16.74
2018-05-02T13:43:38.734Z,17.13
2018-05-02T13:46:06.275Z,17.22
2018-05-02T13:48:33.841Z,17.43
2018-05-02T13:51:01.430Z,17.34
2018-05-02T13:53:29.304Z,17.31
2018-05-02T13:55:56.854Z,17.38
2018-05-02T13:58:24.688Z,17.29
2018-05-02T14:00:52.520Z,17.23
2018-05-02T14:03:20.041Z,17.48
2018-05-02T14:05:47.609Z,17.99
2018-05-02T14:08:15.201Z,18.37
2018-05-02T14:10:42.783Z,18.90
2018-05-02T14:13:10.296Z,18.85
2018-05-02T14:15:37.958Z,18.34
2018-05-02T14:18:06.468Z,17.75
2018-05-02T14:20:33.991Z,17.69
2018-05-02T14:23:01.493Z,17.86
2018-05-02T14:25:29.071Z,17.45
2018-05-02T14:27:56.600Z,17.61
2018-05-02T14:30:24.516Z,17.82
2018-05-02T14:32:52.140Z,18.03
2018-05-02T14:35:19.640Z,18.13
2018-05-02T14:37:47.192Z,18.13
2018-05-02T14:40:14.757Z,18.00
2018-05-02T14:42:42.324Z,17.98
2018-05-02T14:45:09.868Z,17.95
2018-05-02T14:47:37.456Z,18.03
2018-05-02T14:50:05.029Z,18.04
2018-05-02T14:52:32.617Z,18.00
2018-05-02T14:55:00.208Z,17.79
2018-05-02T14:57:28.030Z,17.78
2018-05-02T14:59:55.547Z,17.52
2018-05-02T15:02:23.171Z,17.54
2018-05-02T15:04:50.737Z,17.40
2018-05-02T15:07:18.297Z,17.20
2018-05-02T15:09:45.852Z,17.24
2018-05-02T15:12:13.366Z,17.16
2018-05-02T15:14:40.919Z,17.22
2018-05-02T15:17:08.464Z,17.22
2018-05-02T15:19:36.029Z,17.21
2018-05-02T15:22:03.631Z,17.18
2018-05-02T15:24:31.178Z,17.00
2018-05-02T15:26:58.694Z,17.04
2018-05-02T15:29:26.206Z,17.03
2018-05-02T15:31:53.844Z,17.07
2018-05-02T15:34:21.361Z,17.06
2018-05-02T15:36:48.971Z,17.04
2018-05-02T15:39:17.961Z,16.98
2018-05-02T15:41:45.809Z,17.02
2018-05-02T15:44:13.310Z,17.11
2018-05-02T15:46:40.869Z,17.11
2018-05-02T15:49:08.385Z,17.07
2018-05-02T15:51:36.008Z,16.94
2018-05-02T15:54:03.718Z,17.00
2018-05-02T15:56:31.316Z,16.96
2018-05-02T15:58:58.864Z,17.00
2018-05-02T16:01:26.422Z,17.02
2018-05-02T16:03:53.948Z,16.85
2018-05-02T16:06:21.985Z,16.93
2018-05-02T16:08:49.568Z,16.86
2018-05-02T16:11:17.187Z,16.94
2018-05-02T16:13:44.770Z,16.93
2018-05-02T16:16:12.419Z,16.88
2018-05-02T16:18:40.080Z,16.84
2018-05-02T16:21:07.675Z,16.84
2018-05-02T16:23:35.293Z,16.83
2018-05-02T16:26:02.845Z,16.76
2018-05-02T16:28:30.369Z,16.76
2018-05-02T16:30:58.293Z,16.65
2018-05-02T16:33:25.803Z,16.58
2018-05-02T16:35:53.342Z,16.56
2018-05-02T16:38:20.878Z,16.45
2018-05-02T16:40:48.414Z,16.43
2018-05-02T16:43:15.962Z,16.35
2018-05-02T16:45:43.489Z,16.42
2018-05-02T16:48:11.074Z,16.49
2018-05-02T16:50:38.644Z,16.50
2018-05-02T16:53:06.617Z,16.49
2018-05-02T16:55:34.493Z,16.45
2018-05-02T16:58:02.046Z,16.42
2018-05-02T17:00:29.730Z,16.29
2018-05-02T17:02:57.354Z,16.26
2018-05-02T17:05:24.889Z,16.20
2018-05-02T17:07:52.722Z,16.19
2018-05-02T17:10:20.272Z,16.27
2018-05-02T17:12:47.810Z,16.20
2018-05-02T17:15:15.350Z,16.24
2018-05-02T17:17:43.055Z,16.16
2018-05-02T17:20:10.919Z,16.22
2018-05-02T17:22:38.660Z,16.16
2018-05-02T17:25:06.243Z,16.18
2018-05-02T17:27:33.803Z,16.14
2018-05-02T17:30:01.467Z,16.11
2018-05-02T17:32:28.978Z,16.00
2018-05-02T17:34:56.493Z,16.03
2018-05-02T17:37:24.051Z,16.01
2018-05-02T17:39:52.322Z,16.01
2018-05-02T17:42:19.941Z,16.03
2018-05-02T17:44:47.748Z,16.06
2018-05-02T17:47:15.292Z,16.08
2018-05-02T17:49:42.820Z,16.08
2018-05-02T17:52:10.409Z,16.00
2018-05-02T17:54:38.043Z,16.01
2018-05-02T17:57:05.750Z,15.96
2018-05-02T17:59:33.618Z,15.89
2018-05-02T18:02:01.120Z,15.77
2018-05-02T18:04:28.710Z,15.78
2018-05-02T18:06:56.288Z,15.76
2018-05-02T18:09:24.597Z,15.84
2018-05-02T18:11:52.140Z,15.96
2018-05-02T18:14:19.765Z,15.96
2018-05-02T18:16:47.362Z,15.89
2018-05-02T18:19:15.029Z,15.79
2018-05-02T18:21:42.904Z,15.71
2018-05-02T18:24:10.503Z,15.85
2018-05-02T18:26:38.034Z,15.86
2018-05-02T18:29:05.585Z,15.91
2018-05-02T18:31:33.114Z,15.89
2018-05-02T18:34:00.680Z,15.87
2018-05-02T18:36:28.301Z,15.89
2018-05-02T18:38:55.807Z,15.79
2018-05-02T18:41:23.336Z,15.89
2018-05-02T18:43:50.910Z,15.87
2018-05-02T18:46:18.425Z,15.86
2018-05-02T18:48:45.945Z,15.84
2018-05-02T18:51:13.544Z,15.81
2018-05-02T18:53:41.059Z,15.81
2018-05-02T18:56:08.619Z,15.81
2018-05-02T18:58:36.249Z,15.76
2018-05-02T19:01:03.740Z,15.69
2018-05-02T19:03:31.261Z,15.70
2018-05-02T19:05:58.844Z,15.67
2018-05-02T19:08:26.515Z,15.58
2018-05-02T19:10:54.654Z,15.47
2018-05-02T19:13:22.199Z,15.46
2018-05-02T19:15:49.762Z,15.37
2018-05-02T19:18:22.889Z,15.45
2018-05-02T19:20:50.517Z,15.46
2018-05-02T19:23:18.032Z,15.51
2018-05-02T19:25:51.282Z,15.52
2018-05-02T19:28:18.896Z,15.50
2018-05-02T19:30:46.405Z,15.47
2018-05-02T19:33:19.464Z,15.41
2018-05-02T19:35:47.014Z,15.38
2018-05-02T19:38:14.610Z,15.32
2018-05-02T19:40:47.576Z,15.29
2018-05-02T19:43:20.761Z,15.35
2018-05-02T19:45:48.651Z,15.33
2018-05-02T19:48:16.164Z,15.38
2018-05-02T19:50:49.496Z,15.38
2018-05-02T19:53:17.157Z,15.36
2018-05-02T19:55:44.711Z,15.35
2018-05-02T19:58:12.349Z,15.45
2018-05-02T20:00:45.604Z,15.52
2018-05-02T20:03:13.223Z,15.51
2018-05-02T20:05:40.887Z,15.47
2018-05-02T20:08:14.151Z,15.49
2018-05-02T20:10:47.464Z,15.52
2018-05-02T20:13:20.927Z,15.51
2018-05-02T20:15:48.605Z,15.51
2018-05-02T20:18:16.187Z,15.51
2018-05-02T20:20:43.818Z,15.47
2018-05-02T20:23:11.374Z,15.46
2018-05-02T20:25:39.017Z,15.47
2018-05-02T20:28:06.573Z,15.46
2018-05-02T20:30:34.118Z,15.47
2018-05-02T20:33:01.781Z,15.36
2018-05-02T20:35:29.375Z,15.38
2018-05-02T20:37:57.235Z,15.39
2018-05-02T20:40:24.764Z,15.38
2018-05-02T20:42:52.360Z,15.28
2018-05-02T20:45:19.917Z,15.33
2018-05-02T20:47:47.677Z,15.31
2018-05-02T20:50:15.254Z,15.28
2018-05-02T20:52:42.954Z,15.27
2018-05-02T20:55:10.605Z,15.17
2018-05-02T20:57:38.681Z,15.12
2018-05-02T21:00:06.514Z,15.15
2018-05-02T21:02:34.053Z,15.13
2018-05-02T21:05:01.564Z,15.21
2018-05-02T21:07:29.089Z,15.13
2018-05-02T21:09:56.623Z,15.08
2018-05-02T21:12:24.390Z,15.07
2018-05-02T21:14:51.929Z,15.17
2018-05-02T21:17:19.438Z,15.15
2018-05-02T21:19:46.977Z,15.17
2018-05-02T21:22:14.509Z,15.15
2018-05-02T21:24:42.295Z,15.05
2018-05-02T21:27:09.844Z,15.01
2018-05-02T21:29:37.383Z,14.97
2018-05-02T21:32:05.190Z,14.96
2018-05-02T21:34:32.753Z,14.94
2018-05-02T21:37:00.368Z,14.94
2018-05-02T21:39:27.992Z,14.94
2018-05-02T21:41:55.500Z,14.95
2018-05-02T21:44:23.033Z,14.97
2018-05-02T21:46:50.560Z,14.98
2018-05-02T21:49:18.109Z,15.03
2018-05-02T21:51:45.678Z,15.05
2018-05-02T21:54:13.193Z,15.26
2018-05-02T21:56:41.102Z,15.19
2018-05-02T21:59:08.994Z,15.07
2018-05-02T22:01:36.523Z,15.07
2018-05-02T22:04:04.101Z,15.12
2018-05-02T22:06:31.608Z,15.05
2018-05-02T22:08:59.104Z,15.04
2018-05-02T22:11:26.647Z,15.05
2018-05-02T22:13:54.189Z,15.02
2018-05-02T22:16:22.690Z,15.03
2018-05-02T22:18:50.284Z,15.08
2018-05-02T22:21:17.969Z,15.21
2018-05-02T22:23:45.536Z,15.14
2018-05-02T22:26:13.116Z,15.13
2018-05-02T22:28:40.697Z,15.06
2018-05-02T22:31:08.281Z,15.03
2018-05-02T22:33:35.811Z,15.00
2018-05-02T22:36:03.381Z,14.98
2018-05-02T22:38:30.992Z,14.96
2018-05-02T22:40:58.557Z,14.93
2018-05-02T22:43:26.111Z,14.98
2018-05-02T22:45:53.672Z,15.00
2018-05-02T22:48:21.509Z,14.99
2018-05-02T22:50:49.038Z,14.98
2018-05-02T22:53:16.617Z,14.99
2018-05-02T22:55:44.167Z,15.01
2018-05-02T22:58:11.963Z,14.95
2018-05-02T23:00:39.485Z,14.90
2018-05-02T23:03:07.045Z,14.87
2018-05-02T23:05:34.585Z,14.86
2018-05-02T23:08:02.104Z,14.86
2018-05-02T23:10:29.643Z,14.85
2018-05-02T23:12:57.192Z,14.83
2018-05-02T23:15:24.722Z,14.81
2018-05-02T23:17:52.311Z,14.83
2018-05-02T23:20:19.905Z,14.76
2018-05-02T23:22:47.428Z,14.74
2018-05-02T23:25:14.971Z,14.76
2018-05-02T23:27:42.516Z,14.71
2018-05-02T23:30:10.058Z,14.69
2018-05-02T23:32:37.661Z,14.67
2018-05-02T23:35:05.239Z,14.66
2018-05-02T23:37:33.037Z,14.67
2018-05-02T23:40:00.617Z,14.66
2018-05-02T23:42:28.143Z,14.65
2018-05-02T23:44:55.696Z,14.72
2018-05-02T23:47:23.838Z,14.70
2018-05-02T23:49:51.362Z,14.69
2018-05-02T23:52:18.906Z,14.68
2018-05-02T23:54:46.512Z,14.67
2018-05-02T23:57:14.082Z,14.66
2018-05-02T23:59:41.581Z,14.69
